sensor_id;sensor_type;location;lat;lon;timestamp;P1;durP1;ratioP1;P2;durP2;ratioP2
37267;SDS011;23154;52.542;13.362;2023-06-19T00:01:21;18.08;;;7.20;;
37267;SDS011;23154;52.542;13.362;2023-06-19T00:03:47;18.90;;;7.55;;
37267;SDS011;23154;52.542;13.362;2023-06-19T00:06:13;17.10;;;7.40;;
37267;SDS011;23154;52.542;13.362;2023-06-19T00:08:39;18.13;;;7.20;;
37267;SDS011;23154;52.542;13.362;2023-06-19T00:11:08;20.73;;;12.50;;
37267;SDS011;23154;52.542;13.362;2023-06-19T00:13:34;19.65;;;12.00;;
37267;SDS011;23154;52.542;13.362;2023-06-19T00:16:00;19.13;;;12.25;;
37267;SDS011;23154;52.542;13.362;2023-06-19T00:18:27;19.30;;;11.88;;
37267;SDS011;23154;52.542;13.362;2023-06-19T00:20:53;19.25;;;11.40;;
37267;SDS011;23154;52.542;13.362;2023-06-19T00:23:21;19.65;;;12.10;;
37267;SDS011;23154;52.542;13.362;2023-06-19T00:25:47;20.58;;;11.20;;
37267;SDS011;23154;52.542;13.362;2023-06-19T00:28:13;22.05;;;12.23;;
37267;SDS011;23154;52.542;13.362;2023-06-19T00:30:43;18.27;;;11.32;;
37267;SDS011;23154;52.542;13.362;2023-06-19T00:33:09;20.40;;;11.70;;
37267;SDS011;23154;52.542;13.362;2023-06-19T00:35:36;20.77;;;12.25;;
37267;SDS011;23154;52.542;13.362;2023-06-19T00:38:02;19.10;;;11.60;;
37267;SDS011;23154;52.542;13.362;2023-06-19T00:40:32;20.90;;;12.40;;
37267;SDS011;23154;52.542;13.362;2023-06-19T00:42:58;22.15;;;12.93;;
37267;SDS011;23154;52.542;13.362;2023-06-19T00:45:25;18.05;;;11.57;;
37267;SDS011;23154;52.542;13.362;2023-06-19T00:47:55;18.85;;;11.68;;
37267;SDS011;23154;52.542;13.362;2023-06-19T00:50:21;20.77;;;12.05;;
37267;SDS011;23154;52.542;13.362;2023-06-19T00:52:48;19.10;;;11.88;;
37267;SDS011;23154;52.542;13.362;2023-06-19T00:55:14;24.23;;;12.13;;
37267;SDS011;23154;52.542;13.362;2023-06-19T00:57:41;18.40;;;11.80;;
37267;SDS011;23154;52.542;13.362;2023-06-19T01:00:07;18.45;;;11.43;;
37267;SDS011;23154;52.542;13.362;2023-06-19T01:02:33;20.05;;;12.35;;
37267;SDS011;23154;52.542;13.362;2023-06-19T01:05:00;19.52;;;11.80;;
37267;SDS011;23154;52.542;13.362;2023-06-19T01:07:32;21.05;;;12.13;;
37267;SDS011;23154;52.542;13.362;2023-06-19T01:09:59;18.70;;;11.23;;
37267;SDS011;23154;52.542;13.362;2023-06-19T01:12:30;18.88;;;12.57;;
37267;SDS011;23154;52.542;13.362;2023-06-19T01:14:58;19.10;;;12.25;;
37267;SDS011;23154;52.542;13.362;2023-06-19T01:17:25;21.92;;;12.45;;
37267;SDS011;23154;52.542;13.362;2023-06-19T01:19:52;20.17;;;12.45;;
37267;SDS011;23154;52.542;13.362;2023-06-19T01:22:37;18.70;;;12.05;;
37267;SDS011;23154;52.542;13.362;2023-06-19T01:25:03;19.58;;;13.07;;
37267;SDS011;23154;52.542;13.362;2023-06-19T01:27:32;20.07;;;12.67;;
37267;SDS011;23154;52.542;13.362;2023-06-19T01:29:58;20.35;;;12.35;;
37267;SDS011;23154;52.542;13.362;2023-06-19T01:34:52;20.35;;;12.48;;
37267;SDS011;23154;52.542;13.362;2023-06-19T01:37:20;20.35;;;12.50;;
37267;SDS011;23154;52.542;13.362;2023-06-19T01:39:46;22.10;;;12.70;;
37267;SDS011;23154;52.542;13.362;2023-06-19T01:42:13;19.65;;;12.07;;
37267;SDS011;23154;52.542;13.362;2023-06-19T01:44:39;20.48;;;12.15;;
37267;SDS011;23154;52.542;13.362;2023-06-19T01:47:09;21.25;;;12.77;;
37267;SDS011;23154;52.542;13.362;2023-06-19T01:52:01;20.25;;;12.38;;
37267;SDS011;23154;52.542;13.362;2023-06-19T01:54:27;20.85;;;12.18;;
37267;SDS011;23154;52.542;13.362;2023-06-19T01:56:53;19.70;;;12.38;;
37267;SDS011;23154;52.542;13.362;2023-06-19T01:59:20;21.00;;;12.55;;
37267;SDS011;23154;52.542;13.362;2023-06-19T02:01:46;21.05;;;12.60;;
37267;SDS011;23154;52.542;13.362;2023-06-19T02:04:12;20.75;;;12.45;;
37267;SDS011;23154;52.542;13.362;2023-06-19T02:06:38;22.60;;;12.63;;
37267;SDS011;23154;52.542;13.362;2023-06-19T02:09:04;21.13;;;13.30;;
37267;SDS011;23154;52.542;13.362;2023-06-19T02:11:30;20.70;;;13.27;;
37267;SDS011;23154;52.542;13.362;2023-06-19T02:13:56;20.10;;;12.65;;
37267;SDS011;23154;52.542;13.362;2023-06-19T02:16:22;21.02;;;12.38;;
37267;SDS011;23154;52.542;13.362;2023-06-19T02:18:48;19.55;;;12.68;;
37267;SDS011;23154;52.542;13.362;2023-06-19T02:21:15;20.40;;;13.35;;
37267;SDS011;23154;52.542;13.362;2023-06-19T02:23:41;21.75;;;13.65;;
37267;SDS011;23154;52.542;13.362;2023-06-19T02:26:07;22.45;;;13.05;;
37267;SDS011;23154;52.542;13.362;2023-06-19T02:28:33;20.60;;;13.70;;
37267;SDS011;23154;52.542;13.362;2023-06-19T02:30:59;21.70;;;12.70;;
37267;SDS011;23154;52.542;13.362;2023-06-19T02:33:25;19.30;;;12.25;;
37267;SDS011;23154;52.542;13.362;2023-06-19T02:35:51;20.17;;;13.65;;
37267;SDS011;23154;52.542;13.362;2023-06-19T02:38:22;22.27;;;12.85;;
37267;SDS011;23154;52.542;13.362;2023-06-19T02:40:48;20.00;;;12.80;;
37267;SDS011;23154;52.542;13.362;2023-06-19T02:43:14;20.70;;;13.00;;
37267;SDS011;23154;52.542;13.362;2023-06-19T02:45:40;19.48;;;13.02;;
37267;SDS011;23154;52.542;13.362;2023-06-19T02:48:07;19.27;;;12.98;;
37267;SDS011;23154;52.542;13.362;2023-06-19T02:50:33;20.17;;;12.55;;
37267;SDS011;23154;52.542;13.362;2023-06-19T02:52:59;20.60;;;12.90;;
37267;SDS011;23154;52.542;13.362;2023-06-19T02:55:25;19.40;;;12.45;;
37267;SDS011;23154;52.542;13.362;2023-06-19T02:57:51;22.85;;;13.95;;
37267;SDS011;23154;52.542;13.362;2023-06-19T03:00:17;19.65;;;13.10;;
37267;SDS011;23154;52.542;13.362;2023-06-19T03:02:43;21.30;;;13.32;;
37267;SDS011;23154;52.542;13.362;2023-06-19T03:05:10;21.25;;;14.32;;
37267;SDS011;23154;52.542;13.362;2023-06-19T03:07:37;20.25;;;12.52;;
37267;SDS011;23154;52.542;13.362;2023-06-19T03:10:03;23.35;;;14.15;;
37267;SDS011;23154;52.542;13.362;2023-06-19T03:12:29;21.35;;;13.80;;
37267;SDS011;23154;52.542;13.362;2023-06-19T03:14:55;22.95;;;12.93;;
37267;SDS011;23154;52.542;13.362;2023-06-19T03:17:21;21.13;;;13.68;;
37267;SDS011;23154;52.542;13.362;2023-06-19T03:19:47;22.38;;;13.23;;
37267;SDS011;23154;52.542;13.362;2023-06-19T03:22:13;20.83;;;13.20;;
37267;SDS011;23154;52.542;13.362;2023-06-19T03:24:39;20.83;;;14.40;;
37267;SDS011;23154;52.542;13.362;2023-06-19T03:27:05;21.98;;;14.60;;
37267;SDS011;23154;52.542;13.362;2023-06-19T03:29:32;22.02;;;13.80;;
37267;SDS011;23154;52.542;13.362;2023-06-19T03:31:58;21.45;;;14.55;;
37267;SDS011;23154;52.542;13.362;2023-06-19T03:34:24;20.02;;;13.73;;
37267;SDS011;23154;52.542;13.362;2023-06-19T03:36:50;22.55;;;14.48;;
37267;SDS011;23154;52.542;13.362;2023-06-19T03:39:16;22.02;;;14.07;;
37267;SDS011;23154;52.542;13.362;2023-06-19T03:41:41;20.80;;;13.80;;
37267;SDS011;23154;52.542;13.362;2023-06-19T03:44:07;19.77;;;13.68;;
37267;SDS011;23154;52.542;13.362;2023-06-19T03:46:34;22.35;;;13.43;;
37267;SDS011;23154;52.542;13.362;2023-06-19T03:49:00;20.90;;;13.93;;
37267;SDS011;23154;52.542;13.362;2023-06-19T03:51:27;21.25;;;14.02;;
37267;SDS011;23154;52.542;13.362;2023-06-19T03:53:54;20.50;;;14.32;;
37267;SDS011;23154;52.542;13.362;2023-06-19T03:58:22;22.67;;;14.32;;
37267;SDS011;23154;52.542;13.362;2023-06-19T04:00:48;20.90;;;13.98;;
37267;SDS011;23154;52.542;13.362;2023-06-19T04:03:14;21.38;;;15.13;;
37267;SDS011;23154;52.542;13.362;2023-06-19T04:05:40;20.98;;;14.30;;
37267;SDS011;23154;52.542;13.362;2023-06-19T04:08:07;20.58;;;13.85;;
37267;SDS011;23154;52.542;13.362;2023-06-19T04:10:33;22.50;;;14.55;;
37267;SDS011;23154;52.542;13.362;2023-06-19T04:12:59;20.75;;;14.95;;
37267;SDS011;23154;52.542;13.362;2023-06-19T04:15:25;22.05;;;15.35;;
37267;SDS011;23154;52.542;13.362;2023-06-19T04:17:51;22.40;;;15.73;;
37267;SDS011;23154;52.542;13.362;2023-06-19T04:20:17;21.80;;;14.95;;
37267;SDS011;23154;52.542;13.362;2023-06-19T04:22:43;20.67;;;14.77;;
37267;SDS011;23154;52.542;13.362;2023-06-19T04:25:09;23.42;;;15.00;;
37267;SDS011;23154;52.542;13.362;2023-06-19T04:27:35;22.27;;;15.30;;
37267;SDS011;23154;52.542;13.362;2023-06-19T04:30:02;20.88;;;15.07;;
37267;SDS011;23154;52.542;13.362;2023-06-19T04:32:29;21.20;;;14.60;;
37267;SDS011;23154;52.542;13.362;2023-06-19T04:34:55;23.13;;;15.70;;
37267;SDS011;23154;52.542;13.362;2023-06-19T04:37:22;23.15;;;15.40;;
37267;SDS011;23154;52.542;13.362;2023-06-19T04:39:48;21.77;;;14.80;;
37267;SDS011;23154;52.542;13.362;2023-06-19T04:42:16;22.38;;;15.02;;
37267;SDS011;23154;52.542;13.362;2023-06-19T04:44:44;21.98;;;15.57;;
37267;SDS011;23154;52.542;13.362;2023-06-19T04:47:10;21.67;;;15.88;;
37267;SDS011;23154;52.542;13.362;2023-06-19T04:49:36;25.88;;;15.45;;
37267;SDS011;23154;52.542;13.362;2023-06-19T04:52:02;22.67;;;15.30;;
37267;SDS011;23154;52.542;13.362;2023-06-19T04:54:28;22.85;;;15.63;;
37267;SDS011;23154;52.542;13.362;2023-06-19T04:56:57;21.48;;;14.77;;
37267;SDS011;23154;52.542;13.362;2023-06-19T04:59:23;22.92;;;15.30;;
37267;SDS011;23154;52.542;13.362;2023-06-19T05:01:50;22.20;;;14.70;;
37267;SDS011;23154;52.542;13.362;2023-06-19T05:04:22;22.30;;;15.37;;
37267;SDS011;23154;52.542;13.362;2023-06-19T05:06:49;22.80;;;15.87;;
37267;SDS011;23154;52.542;13.362;2023-06-19T05:09:15;22.20;;;15.00;;
37267;SDS011;23154;52.542;13.362;2023-06-19T05:11:41;23.15;;;15.82;;
37267;SDS011;23154;52.542;13.362;2023-06-19T05:14:08;22.00;;;15.25;;
37267;SDS011;23154;52.542;13.362;2023-06-19T05:16:34;23.13;;;15.38;;
37267;SDS011;23154;52.542;13.362;2023-06-19T05:19:00;23.38;;;16.23;;
37267;SDS011;23154;52.542;13.362;2023-06-19T05:21:27;22.75;;;16.38;;
37267;SDS011;23154;52.542;13.362;2023-06-19T05:23:53;24.33;;;15.88;;
37267;SDS011;23154;52.542;13.362;2023-06-19T05:26:19;23.00;;;16.02;;
37267;SDS011;23154;52.542;13.362;2023-06-19T05:28:47;23.30;;;16.05;;
37267;SDS011;23154;52.542;13.362;2023-06-19T05:31:14;23.73;;;16.17;;
37267;SDS011;23154;52.542;13.362;2023-06-19T05:33:40;22.60;;;16.02;;
37267;SDS011;23154;52.542;13.362;2023-06-19T05:36:06;26.33;;;16.38;;
37267;SDS011;23154;52.542;13.362;2023-06-19T05:38:32;23.98;;;16.42;;
37267;SDS011;23154;52.542;13.362;2023-06-19T05:40:59;24.88;;;15.88;;
37267;SDS011;23154;52.542;13.362;2023-06-19T05:43:25;26.48;;;16.40;;
37267;SDS011;23154;52.542;13.362;2023-06-19T05:45:52;24.23;;;17.15;;
37267;SDS011;23154;52.542;13.362;2023-06-19T05:48:19;23.55;;;16.50;;
37267;SDS011;23154;52.542;13.362;2023-06-19T05:50:45;23.33;;;16.52;;
37267;SDS011;23154;52.542;13.362;2023-06-19T05:53:11;25.45;;;16.83;;
37267;SDS011;23154;52.542;13.362;2023-06-19T05:55:37;21.58;;;16.02;;
37267;SDS011;23154;52.542;13.362;2023-06-19T05:58:03;25.85;;;15.88;;
37267;SDS011;23154;52.542;13.362;2023-06-19T06:00:29;22.90;;;15.77;;
37267;SDS011;23154;52.542;13.362;2023-06-19T06:02:58;25.42;;;16.42;;
37267;SDS011;23154;52.542;13.362;2023-06-19T06:05:25;22.60;;;16.50;;
37267;SDS011;23154;52.542;13.362;2023-06-19T06:07:51;25.98;;;16.60;;
37267;SDS011;23154;52.542;13.362;2023-06-19T06:10:19;23.00;;;16.35;;
37267;SDS011;23154;52.542;13.362;2023-06-19T06:12:45;23.98;;;16.80;;
37267;SDS011;23154;52.542;13.362;2023-06-19T06:15:11;23.00;;;16.55;;
37267;SDS011;23154;52.542;13.362;2023-06-19T06:17:37;28.98;;;19.50;;
37267;SDS011;23154;52.542;13.362;2023-06-19T06:20:03;28.20;;;19.75;;
37267;SDS011;23154;52.542;13.362;2023-06-19T06:22:35;30.17;;;17.60;;
37267;SDS011;23154;52.542;13.362;2023-06-19T06:25:01;28.27;;;19.35;;
37267;SDS011;23154;52.542;13.362;2023-06-19T06:27:27;25.48;;;17.30;;
37267;SDS011;23154;52.542;13.362;2023-06-19T06:29:53;27.48;;;18.45;;
37267;SDS011;23154;52.542;13.362;2023-06-19T06:32:19;26.88;;;19.35;;
37267;SDS011;23154;52.542;13.362;2023-06-19T06:34:45;25.55;;;17.52;;
37267;SDS011;23154;52.542;13.362;2023-06-19T06:37:11;22.88;;;15.68;;
37267;SDS011;23154;52.542;13.362;2023-06-19T06:39:37;24.98;;;17.17;;
37267;SDS011;23154;52.542;13.362;2023-06-19T06:42:03;25.92;;;18.00;;
37267;SDS011;23154;52.542;13.362;2023-06-19T06:44:30;24.35;;;17.00;;
37267;SDS011;23154;52.542;13.362;2023-06-19T06:46:56;27.77;;;16.88;;
37267;SDS011;23154;52.542;13.362;2023-06-19T06:49:22;28.95;;;17.55;;
37267;SDS011;23154;52.542;13.362;2023-06-19T06:51:48;24.90;;;16.63;;
37267;SDS011;23154;52.542;13.362;2023-06-19T06:54:14;24.52;;;16.27;;
37267;SDS011;23154;52.542;13.362;2023-06-19T06:56:40;26.52;;;17.10;;
37267;SDS011;23154;52.542;13.362;2023-06-19T06:59:06;24.52;;;16.65;;
37267;SDS011;23154;52.542;13.362;2023-06-19T07:01:32;22.73;;;17.00;;
37267;SDS011;23154;52.542;13.362;2023-06-19T07:03:58;23.30;;;15.88;;
37267;SDS011;23154;52.542;13.362;2023-06-19T07:06:24;25.33;;;17.92;;
37267;SDS011;23154;52.542;13.362;2023-06-19T07:08:50;26.35;;;17.85;;
37267;SDS011;23154;52.542;13.362;2023-06-19T07:11:16;26.23;;;17.60;;
37267;SDS011;23154;52.542;13.362;2023-06-19T07:13:42;23.98;;;16.95;;
37267;SDS011;23154;52.542;13.362;2023-06-19T07:16:08;25.50;;;16.75;;
37267;SDS011;23154;52.542;13.362;2023-06-19T07:18:34;26.27;;;16.95;;
37267;SDS011;23154;52.542;13.362;2023-06-19T07:21:03;23.17;;;17.08;;
37267;SDS011;23154;52.542;13.362;2023-06-19T07:23:32;23.38;;;16.90;;
37267;SDS011;23154;52.542;13.362;2023-06-19T07:25:58;29.00;;;17.20;;
37267;SDS011;23154;52.542;13.362;2023-06-19T07:28:24;23.95;;;16.63;;
37267;SDS011;23154;52.542;13.362;2023-06-19T07:30:50;22.67;;;16.25;;
37267;SDS011;23154;52.542;13.362;2023-06-19T07:33:17;23.67;;;16.08;;
37267;SDS011;23154;52.542;13.362;2023-06-19T07:35:43;27.33;;;18.05;;
37267;SDS011;23154;52.542;13.362;2023-06-19T07:38:09;25.38;;;16.58;;
37267;SDS011;23154;52.542;13.362;2023-06-19T07:40:35;22.92;;;17.48;;
37267;SDS011;23154;52.542;13.362;2023-06-19T07:43:01;25.95;;;17.33;;
37267;SDS011;23154;52.542;13.362;2023-06-19T07:45:27;25.73;;;18.10;;
37267;SDS011;23154;52.542;13.362;2023-06-19T07:47:53;26.45;;;16.90;;
37267;SDS011;23154;52.542;13.362;2023-06-19T07:50:20;29.73;;;19.05;;
37267;SDS011;23154;52.542;13.362;2023-06-19T07:52:46;27.02;;;16.98;;
37267;SDS011;23154;52.542;13.362;2023-06-19T07:55:12;26.30;;;17.67;;
37267;SDS011;23154;52.542;13.362;2023-06-19T07:57:38;25.55;;;17.27;;
37267;SDS011;23154;52.542;13.362;2023-06-19T08:00:04;25.52;;;17.05;;
37267;SDS011;23154;52.542;13.362;2023-06-19T08:02:36;23.30;;;17.27;;
37267;SDS011;23154;52.542;13.362;2023-06-19T08:05:02;24.77;;;17.65;;
37267;SDS011;23154;52.542;13.362;2023-06-19T08:07:28;22.77;;;17.15;;
37267;SDS011;23154;52.542;13.362;2023-06-19T08:09:54;33.28;;;21.75;;
37267;SDS011;23154;52.542;13.362;2023-06-19T08:12:20;26.92;;;19.08;;
37267;SDS011;23154;52.542;13.362;2023-06-19T08:14:46;23.80;;;17.67;;
37267;SDS011;23154;52.542;13.362;2023-06-19T08:17:12;26.85;;;19.20;;
37267;SDS011;23154;52.542;13.362;2023-06-19T08:19:38;30.35;;;18.17;;
37267;SDS011;23154;52.542;13.362;2023-06-19T08:22:05;25.02;;;18.23;;
37267;SDS011;23154;52.542;13.362;2023-06-19T08:24:31;25.92;;;18.52;;
37267;SDS011;23154;52.542;13.362;2023-06-19T08:26:57;24.48;;;18.63;;
37267;SDS011;23154;52.542;13.362;2023-06-19T08:29:23;27.25;;;18.65;;
37267;SDS011;23154;52.542;13.362;2023-06-19T08:31:49;31.40;;;19.85;;
37267;SDS011;23154;52.542;13.362;2023-06-19T08:34:15;29.30;;;21.17;;
37267;SDS011;23154;52.542;13.362;2023-06-19T08:36:41;26.80;;;17.85;;
37267;SDS011;23154;52.542;13.362;2023-06-19T08:39:07;23.75;;;17.23;;
37267;SDS011;23154;52.542;13.362;2023-06-19T08:41:36;25.92;;;16.77;;
37267;SDS011;23154;52.542;13.362;2023-06-19T08:44:02;23.80;;;17.27;;
37267;SDS011;23154;52.542;13.362;2023-06-19T08:46:28;23.33;;;17.52;;
37267;SDS011;23154;52.542;13.362;2023-06-19T08:48:54;24.90;;;16.65;;
37267;SDS011;23154;52.542;13.362;2023-06-19T08:51:21;23.00;;;17.10;;
37267;SDS011;23154;52.542;13.362;2023-06-19T08:53:47;23.50;;;16.95;;
37267;SDS011;23154;52.542;13.362;2023-06-19T08:56:16;23.35;;;17.33;;
37267;SDS011;23154;52.542;13.362;2023-06-19T08:58:42;26.60;;;16.85;;
37267;SDS011;23154;52.542;13.362;2023-06-19T09:01:08;22.95;;;16.85;;
37267;SDS011;23154;52.542;13.362;2023-06-19T09:03:34;25.25;;;17.10;;
37267;SDS011;23154;52.542;13.362;2023-06-19T09:06:03;26.40;;;17.88;;
37267;SDS011;23154;52.542;13.362;2023-06-19T09:08:29;25.93;;;17.63;;
37267;SDS011;23154;52.542;13.362;2023-06-19T09:10:56;23.35;;;16.60;;
37267;SDS011;23154;52.542;13.362;2023-06-19T09:13:22;24.63;;;17.35;;
37267;SDS011;23154;52.542;13.362;2023-06-19T09:15:56;23.88;;;16.42;;
37267;SDS011;23154;52.542;13.362;2023-06-19T09:18:22;23.40;;;17.05;;
37267;SDS011;23154;52.542;13.362;2023-06-19T09:20:51;26.95;;;17.85;;
37267;SDS011;23154;52.542;13.362;2023-06-19T09:23:18;22.55;;;17.00;;
37267;SDS011;23154;52.542;13.362;2023-06-19T09:25:52;23.85;;;16.00;;
37267;SDS011;23154;52.542;13.362;2023-06-19T09:28:25;22.85;;;17.05;;
37267;SDS011;23154;52.542;13.362;2023-06-19T09:30:52;22.30;;;16.58;;
37267;SDS011;23154;52.542;13.362;2023-06-19T09:33:18;24.98;;;17.80;;
37267;SDS011;23154;52.542;13.362;2023-06-19T09:35:44;42.10;;;28.25;;
37267;SDS011;23154;52.542;13.362;2023-06-19T09:38:11;32.33;;;22.70;;
37267;SDS011;23154;52.542;13.362;2023-06-19T09:40:37;27.95;;;19.35;;
37267;SDS011;23154;52.542;13.362;2023-06-19T09:43:04;25.48;;;18.05;;
37267;SDS011;23154;52.542;13.362;2023-06-19T09:45:31;28.40;;;18.00;;
37267;SDS011;23154;52.542;13.362;2023-06-19T09:47:57;24.45;;;17.73;;
37267;SDS011;23154;52.542;13.362;2023-06-19T09:50:24;24.73;;;17.63;;
37267;SDS011;23154;52.542;13.362;2023-06-19T09:52:52;26.13;;;17.17;;
37267;SDS011;23154;52.542;13.362;2023-06-19T09:55:19;21.65;;;15.60;;
37267;SDS011;23154;52.542;13.362;2023-06-19T09:57:45;22.67;;;16.55;;
37267;SDS011;23154;52.542;13.362;2023-06-19T10:00:11;24.27;;;16.38;;
37267;SDS011;23154;52.542;13.362;2023-06-19T10:02:40;22.90;;;17.13;;
37267;SDS011;23154;52.542;13.362;2023-06-19T10:05:07;23.27;;;16.55;;
37267;SDS011;23154;52.542;13.362;2023-06-19T10:07:41;25.65;;;16.13;;
37267;SDS011;23154;52.542;13.362;2023-06-19T10:10:08;22.75;;;15.88;;
37267;SDS011;23154;52.542;13.362;2023-06-19T10:15:10;26.52;;;17.95;;
37267;SDS011;23154;52.542;13.362;2023-06-19T10:17:37;25.30;;;16.83;;
37267;SDS011;23154;52.542;13.362;2023-06-19T10:20:03;23.02;;;17.20;;
37267;SDS011;23154;52.542;13.362;2023-06-19T10:22:32;23.20;;;16.00;;
37267;SDS011;23154;52.542;13.362;2023-06-19T10:24:58;22.92;;;16.05;;
37267;SDS011;23154;52.542;13.362;2023-06-19T10:27:25;22.35;;;16.00;;
37267;SDS011;23154;52.542;13.362;2023-06-19T10:29:54;23.67;;;16.73;;
37267;SDS011;23154;52.542;13.362;2023-06-19T10:32:23;24.00;;;16.90;;
37267;SDS011;23154;52.542;13.362;2023-06-19T10:34:49;23.48;;;16.80;;
37267;SDS011;23154;52.542;13.362;2023-06-19T10:37:15;25.50;;;17.52;;
37267;SDS011;23154;52.542;13.362;2023-06-19T10:39:42;25.98;;;18.08;;
37267;SDS011;23154;52.542;13.362;2023-06-19T10:42:08;24.23;;;17.05;;
37267;SDS011;23154;52.542;13.362;2023-06-19T10:44:35;23.80;;;17.25;;
37267;SDS011;23154;52.542;13.362;2023-06-19T10:47:04;27.25;;;16.35;;
37267;SDS011;23154;52.542;13.362;2023-06-19T10:49:32;22.38;;;16.73;;
37267;SDS011;23154;52.542;13.362;2023-06-19T10:51:59;23.75;;;16.52;;
37267;SDS011;23154;52.542;13.362;2023-06-19T10:54:25;25.50;;;17.35;;
37267;SDS011;23154;52.542;13.362;2023-06-19T10:56:51;25.27;;;17.10;;
37267;SDS011;23154;52.542;13.362;2023-06-19T10:59:17;22.95;;;17.05;;
37267;SDS011;23154;52.542;13.362;2023-06-19T11:01:47;23.95;;;18.40;;
37267;SDS011;23154;52.542;13.362;2023-06-19T11:04:15;24.65;;;17.35;;
37267;SDS011;23154;52.542;13.362;2023-06-19T11:06:42;24.58;;;17.35;;
37267;SDS011;23154;52.542;13.362;2023-06-19T11:09:08;22.15;;;16.60;;
37267;SDS011;23154;52.542;13.362;2023-06-19T11:11:42;23.60;;;17.00;;
37267;SDS011;23154;52.542;13.362;2023-06-19T11:14:09;24.45;;;17.58;;
37267;SDS011;23154;52.542;13.362;2023-06-19T11:16:37;24.73;;;17.65;;
37267;SDS011;23154;52.542;13.362;2023-06-19T11:19:05;25.25;;;17.20;;
37267;SDS011;23154;52.542;13.362;2023-06-19T11:21:32;22.50;;;17.50;;
37267;SDS011;23154;52.542;13.362;2023-06-19T11:24:01;27.95;;;17.33;;
37267;SDS011;23154;52.542;13.362;2023-06-19T11:26:27;25.02;;;17.45;;
37267;SDS011;23154;52.542;13.362;2023-06-19T11:28:56;22.25;;;15.95;;
37267;SDS011;23154;52.542;13.362;2023-06-19T11:31:28;20.90;;;16.20;;
37267;SDS011;23154;52.542;13.362;2023-06-19T11:33:58;23.52;;;16.30;;
37267;SDS011;23154;52.542;13.362;2023-06-19T11:36:24;22.48;;;17.40;;
37267;SDS011;23154;52.542;13.362;2023-06-19T11:38:51;25.83;;;18.02;;
37267;SDS011;23154;52.542;13.362;2023-06-19T11:41:24;24.08;;;18.15;;
37267;SDS011;23154;52.542;13.362;2023-06-19T11:43:57;24.65;;;15.88;;
37267;SDS011;23154;52.542;13.362;2023-06-19T11:46:27;53.67;;;34.90;;
37267;SDS011;23154;52.542;13.362;2023-06-19T11:48:54;25.70;;;18.58;;
37267;SDS011;23154;52.542;13.362;2023-06-19T11:51:21;23.48;;;17.98;;
37267;SDS011;23154;52.542;13.362;2023-06-19T11:53:47;27.10;;;19.08;;
37267;SDS011;23154;52.542;13.362;2023-06-19T11:56:13;23.33;;;17.35;;
37267;SDS011;23154;52.542;13.362;2023-06-19T11:58:39;23.10;;;16.63;;
37267;SDS011;23154;52.542;13.362;2023-06-19T12:01:05;24.17;;;16.85;;
37267;SDS011;23154;52.542;13.362;2023-06-19T12:03:31;24.02;;;17.52;;
37267;SDS011;23154;52.542;13.362;2023-06-19T12:05:57;22.52;;;17.90;;
37267;SDS011;23154;52.542;13.362;2023-06-19T12:08:23;23.70;;;16.58;;
37267;SDS011;23154;52.542;13.362;2023-06-19T12:10:49;21.52;;;16.92;;
37267;SDS011;23154;52.542;13.362;2023-06-19T12:13:15;21.52;;;15.85;;
37267;SDS011;23154;52.542;13.362;2023-06-19T12:15:41;22.33;;;16.50;;
37267;SDS011;23154;52.542;13.362;2023-06-19T12:18:07;22.55;;;16.67;;
37267;SDS011;23154;52.542;13.362;2023-06-19T12:20:33;24.33;;;17.05;;
37267;SDS011;23154;52.542;13.362;2023-06-19T12:22:59;22.60;;;16.55;;
37267;SDS011;23154;52.542;13.362;2023-06-19T12:25:25;22.58;;;17.42;;
37267;SDS011;23154;52.542;13.362;2023-06-19T12:27:51;21.83;;;17.75;;
37267;SDS011;23154;52.542;13.362;2023-06-19T12:30:17;20.10;;;16.10;;
37267;SDS011;23154;52.542;13.362;2023-06-19T12:32:43;21.40;;;16.60;;
37267;SDS011;23154;52.542;13.362;2023-06-19T12:35:09;22.98;;;16.10;;
37267;SDS011;23154;52.542;13.362;2023-06-19T12:37:35;21.27;;;16.88;;
37267;SDS011;23154;52.542;13.362;2023-06-19T12:40:01;20.70;;;16.77;;
37267;SDS011;23154;52.542;13.362;2023-06-19T12:42:33;22.50;;;18.30;;
37267;SDS011;23154;52.542;13.362;2023-06-19T12:44:59;23.92;;;18.00;;
37267;SDS011;23154;52.542;13.362;2023-06-19T12:47:25;22.88;;;16.35;;
37267;SDS011;23154;52.542;13.362;2023-06-19T12:49:51;21.05;;;15.50;;
37267;SDS011;23154;52.542;13.362;2023-06-19T12:52:17;22.63;;;16.40;;
37267;SDS011;23154;52.542;13.362;2023-06-19T12:54:43;23.02;;;16.63;;
37267;SDS011;23154;52.542;13.362;2023-06-19T12:57:09;23.60;;;17.55;;
37267;SDS011;23154;52.542;13.362;2023-06-19T12:59:35;21.90;;;16.92;;
37267;SDS011;23154;52.542;13.362;2023-06-19T13:02:01;22.38;;;17.38;;
37267;SDS011;23154;52.542;13.362;2023-06-19T13:04:27;22.75;;;17.52;;
37267;SDS011;23154;52.542;13.362;2023-06-19T13:06:53;22.90;;;17.17;;
37267;SDS011;23154;52.542;13.362;2023-06-19T13:09:19;21.10;;;16.88;;
37267;SDS011;23154;52.542;13.362;2023-06-19T13:11:45;25.85;;;19.77;;
37267;SDS011;23154;52.542;13.362;2023-06-19T13:14:11;21.52;;;17.50;;
37267;SDS011;23154;52.542;13.362;2023-06-19T13:16:37;21.33;;;16.83;;
37267;SDS011;23154;52.542;13.362;2023-06-19T13:19:03;16.25;;;7.47;;
37267;SDS011;23154;52.542;13.362;2023-06-19T13:21:29;19.88;;;8.50;;
37267;SDS011;23154;52.542;13.362;2023-06-19T13:23:55;25.80;;;7.88;;
37267;SDS011;23154;52.542;13.362;2023-06-19T13:26:21;18.45;;;8.43;;
37267;SDS011;23154;52.542;13.362;2023-06-19T13:28:47;21.60;;;8.05;;
37267;SDS011;23154;52.542;13.362;2023-06-19T13:31:13;20.48;;;8.60;;
37267;SDS011;23154;52.542;13.362;2023-06-19T13:33:39;19.75;;;7.68;;
37267;SDS011;23154;52.542;13.362;2023-06-19T13:36:05;18.88;;;8.20;;
37267;SDS011;23154;52.542;13.362;2023-06-19T13:38:31;16.30;;;6.85;;
37267;SDS011;23154;52.542;13.362;2023-06-19T13:40:57;16.83;;;7.60;;
37267;SDS011;23154;52.542;13.362;2023-06-19T13:43:23;18.42;;;8.45;;
37267;SDS011;23154;52.542;13.362;2023-06-19T13:45:49;20.30;;;8.38;;
37267;SDS011;23154;52.542;13.362;2023-06-19T13:48:15;20.30;;;9.00;;
37267;SDS011;23154;52.542;13.362;2023-06-19T13:50:41;26.52;;;18.38;;
37267;SDS011;23154;52.542;13.362;2023-06-19T13:53:08;24.30;;;20.15;;
37267;SDS011;23154;52.542;13.362;2023-06-19T13:55:34;22.95;;;13.63;;
37267;SDS011;23154;52.542;13.362;2023-06-19T13:58:00;20.42;;;15.05;;
37267;SDS011;23154;52.542;13.362;2023-06-19T14:00:27;21.00;;;15.57;;
37267;SDS011;23154;52.542;13.362;2023-06-19T14:02:52;21.40;;;15.52;;
37267;SDS011;23154;52.542;13.362;2023-06-19T14:05:19;21.77;;;15.57;;
37267;SDS011;23154;52.542;13.362;2023-06-19T14:07:45;23.45;;;16.05;;
37267;SDS011;23154;52.542;13.362;2023-06-19T14:10:11;22.65;;;16.33;;
37267;SDS011;23154;52.542;13.362;2023-06-19T14:12:37;20.52;;;15.18;;
37267;SDS011;23154;52.542;13.362;2023-06-19T14:15:05;38.42;;;26.08;;